Time;durP1;ratioP1;P1;durP2;ratioP2;P2;SDS_P1;SDS_P2;PMS_P1;PMS_P2;Temp;Humidity;BMP_temperature;BMP_pressure;BME280_temperature;BME280_humidity;BME280_pressure;Samples;Min_cycle;Max_cycle;Signal;HPM_P1;HPM_P2
2023/02/24 00:10:23;;;;;;;10.25;1.50;;;3.50;99.90;;;;;;4980424;28;19918;-83
2023/02/24 00:13:40;;;;;;;13.40;1.67;;;3.50;99.90;;;;;;4950915;28;20066;-82
2023/02/24 00:17:14;;;;;;;;;;;;;;;;;;;;;
2023/02/24 00:20:37;;;;;;;12.77;1.60;;;3.30;99.90;;;;;;4961582;28;20176;-83
2023/02/24 00:27:50;;;;;;;;;;;;;;;;;;;;;
2023/02/24 00:42:03;;;;;;;11.55;1.50;;;2.80;99.90;;;;;;4881896;29;20061;-81
2023/02/24 00:45:29;;;;;;;;;;;;;;;;;;;;;
2023/02/24 00:49:12;;;;;;;15.77;2.10;;;2.80;99.90;;;;;;4912065;29;20100;-81
2023/02/24 00:56:36;;;;;;;12.02;1.98;;;2.70;99.90;;;;;;4856141;29;20049;-81
2023/02/24 00:59:39;;;;;;;;;;;;;;;;;;;;;
2023/02/24 01:23:43;;;;;;;11.35;1.80;;;2.30;99.90;;;;;;5470370;22;18614048;-81
2023/02/24 01:27:20;;;;;;;9.70;1.70;;;2.40;99.90;;;;;;6268622;23;20023;-81
2023/02/24 01:30:46;;;;;;;;;;;;;;;;;;;;;
2023/02/24 01:34:09;;;;;;;9.48;1.42;;;2.30;99.90;;;;;;5926791;24;20029;-82
2023/02/24 01:48:16;;;;;;;14.02;1.77;;;2.00;99.90;;;;;;5878112;24;20024;-81
2023/02/24 02:55:24;;;;;;;8.57;1.80;;;3.10;99.90;;;;;;4591659;22;40080477;-81
2023/02/24 03:02:28;;;;;;;10.07;1.40;;;3.20;99.90;;;;;;6016732;23;20018;-81
2023/02/24 03:12:52;;;;;;;10.35;1.50;;;3.30;99.90;;;;;;6009063;24;20003;-81
2023/02/24 03:15:41;;;;;;;9.18;1.50;;;3.20;99.90;;;;;;5956926;24;19999;-81
2023/02/24 03:18:49;;;;;;;;;;;;;;;;;;;;;
2023/02/24 03:22:18;;;;;;;14.43;1.77;;;3.10;99.90;;;;;;5945927;24;20020;-82
2023/02/24 03:29:22;;;;;;;;;;;;;;;;;;;;;
2023/02/24 03:33:02;;;;;;;10.43;1.63;;;3.00;99.90;;;;;;5957746;24;20020;-82
2023/02/24 03:36:18;;;;;;;11.80;1.52;;;2.90;99.90;;;;;;5956090;24;20009;-81
2023/02/24 03:46:08;;;;;;;14.18;1.88;;;2.90;99.90;;;;;;6055755;23;20066;-81
2023/02/24 03:57:14;;;;;;;11.45;1.63;;;3.10;99.90;;;;;;6057837;23;20029;-81
2023/02/24 04:00:31;;;;;;;;;;;;;;;;;;;;;
2023/02/24 04:07:00;;;;;;;13.38;1.83;;;3.30;99.90;;;;;;6024308;23;20016;-80
2023/02/24 04:36:25;;;;;;;15.63;1.52;;;3.50;99.90;;;;;;6299387;22;20246;-82
2023/02/24 04:39:06;;;;;;;9.07;1.50;;;3.30;99.90;;;;;;6257528;22;20030;-83
2023/02/24 04:42:03;;;;;;;7.60;1.40;;;3.30;99.90;;;;;;6264214;22;20027;-82
2023/02/24 04:44:57;;;;;;;18.67;2.10;;;3.30;99.90;;;;;;6275439;22;20019;-80
2023/02/24 04:47:59;;;;;;;15.60;1.73;;;3.70;99.90;;;;;;6293507;22;20096;-83
2023/02/24 04:50:54;;;;;;;7.47;1.52;;;3.40;99.90;;;;;;6279148;22;20031;-80
2023/02/24 04:57:27;;;;;;;10.05;1.92;;;3.40;99.90;;;;;;6309510;22;20057;-83
2023/02/24 05:00:21;;;;;;;9.85;1.55;;;3.80;99.90;;;;;;6279020;22;20012;-81
2023/02/24 05:03:14;;;;;;;13.70;1.70;;;3.50;99.90;;;;;;6271960;22;20018;-81
2023/02/24 05:06:25;;;;;;;;;;;;;;;;;;;;;
2023/02/24 05:09:32;;;;;;;13.98;1.98;;;3.60;99.90;;;;;;6267236;23;20034;-81
2023/02/24 05:12:28;;;;;;;13.27;1.98;;;3.80;99.90;;;;;;6218261;23;20055;-81
2023/02/24 05:15:34;;;;;;;11.57;1.80;;;3.80;99.90;;;;;;6237138;22;20038;-81
2023/02/24 05:18:29;;;;;;;10.38;1.70;;;3.70;99.90;;;;;;6208916;23;20106;-82
2023/02/24 05:24:36;;;;;;;17.58;2.30;;;3.80;99.90;;;;;;6230589;23;20023;-81
2023/02/24 05:27:47;;;;;;;;;;;;;;;;;;;;;
2023/02/24 05:31:02;;;;;;;14.88;2.10;;;3.70;99.90;;;;;;6249613;23;20452;-82
2023/02/24 05:33:53;;;;;;;10.70;1.65;;;3.90;99.90;;;;;;6157673;23;20040;-81
2023/02/24 05:36:44;;;;;;;15.30;2.20;;;3.80;99.90;;;;;;6131835;23;20043;-81
2023/02/24 05:39:24;;;;;;;14.73;2.38;;;3.60;99.90;;;;;;6096383;23;20096;-81
2023/02/24 05:42:04;;;;;;;25.75;2.50;;;3.80;99.90;;;;;;6072808;23;20439;-81
2023/02/24 05:44:50;;;;;;;18.15;2.28;;;3.90;99.90;;;;;;6103740;23;20019;-81
2023/02/24 05:47:31;;;;;;;22.30;2.17;;;3.70;99.90;;;;;;6103631;23;20068;-81
2023/02/24 05:50:16;;;;;;;16.40;2.40;;;4.00;99.90;;;;;;6126972;23;20382;-81
2023/02/24 05:52:56;;;;;;;20.17;2.53;;;4.00;99.90;;;;;;6126111;23;20023;-81
2023/02/24 05:55:29;;;;;;;9.50;2.00;;;3.80;99.90;;;;;;6125742;23;20149;-81
2023/02/24 05:58:11;;;;;;;18.48;2.35;;;3.90;99.90;;;;;;6102204;23;20115;-81
2023/02/24 06:01:05;;;;;;;13.80;2.17;;;3.90;99.90;;;;;;6104134;23;20021;-81
2023/02/24 06:09:54;;;;;;;19.50;2.30;;;4.00;99.90;;;;;;5990884;23;20034;-81
2023/02/24 06:12:38;;;;;;;19.33;2.75;;;4.10;99.90;;;;;;6010794;23;20012;-81
2023/02/24 06:15:23;;;;;;;;;;;;;;;;;;;;;
2023/02/24 06:18:01;;;;;;;16.52;2.40;;;3.70;99.90;;;;;;6034111;23;20027;-81
2023/02/24 06:20:38;;;;;;;15.15;2.58;;;3.90;99.90;;;;;;5984953;23;20019;-81
2023/02/24 06:23:12;;;;;;;13.27;2.60;;;3.80;99.90;;;;;;5987350;23;20352;-83
2023/02/24 06:26:18;;;;;;;15.52;2.55;;;3.70;99.90;;;;;;5988122;23;20015;-82
2023/02/24 06:29:03;;;;;;;15.70;2.85;;;4.00;99.90;;;;;;5927133;24;20095;-82
2023/02/24 06:31:31;;;;;;;14.95;2.67;;;3.80;99.90;;;;;;5903277;24;20390;-83
2023/02/24 06:34:24;;;;;;;24.33;2.97;;;3.80;99.90;;;;;;5949964;24;20025;-81
2023/02/24 06:37:19;;;;;;;15.48;3.08;;;3.80;99.90;;;;;;5903036;24;20024;-83
2023/02/24 06:40:16;;;;;;;18.40;3.38;;;4.00;99.90;;;;;;5904535;24;20061;-81
2023/02/24 06:43:45;;;;;;;;;;;;;;;;;;;;;
2023/02/24 06:54:37;;;;;;;19.85;4.60;;;4.00;99.90;;;;;;6032669;23;20448;-83
2023/02/24 06:58:22;;;;;;;;;;;;;;;;;;;;;
2023/02/24 07:05:23;;;;;;;;;;;;;;;;;;;;;
2023/02/24 07:16:15;;;;;;;;;;;;;;;;;;;;;
2023/02/24 07:19:28;;;;;;;25.80;5.28;;;5.00;99.90;;;;;;6033376;23;20064;-83
2023/02/24 08:00:01;;;;;;;28.38;5.43;;;4.70;99.90;;;;;;6159544;23;20026;-83
2023/02/24 08:02:39;;;;;;;29.92;5.07;;;4.60;99.90;;;;;;6131129;23;20017;-82
2023/02/24 08:05:26;;;;;;;23.13;5.28;;;4.60;99.90;;;;;;6133284;23;20010;-82
2023/02/24 08:12:30;;;;;;;;;;;;;;;;;;;;;
2023/02/24 08:15:49;;;;;;;;;;;;;;;;;;;;;
2023/02/24 08:25:49;;;;;;;25.17;4.75;;;5.20;99.90;;;;;;6040304;23;20027;-82
2023/02/24 08:28:55;;;;;;;23.20;4.93;;;5.10;99.90;;;;;;6041034;23;20031;-83
2023/02/24 08:33:01;;;;;;;;;;;;;;;;;;;;;
2023/02/24 08:58:13;;;;;;;16.00;4.30;;;5.40;99.90;;;;;;5860101;24;20554;-83
2023/02/24 09:11:42;;;;;;;16.00;5.17;;;5.30;99.90;;;;;;6269648;22;1247669;-83
2023/02/24 09:14:15;;;;;;;24.52;5.53;;;5.70;99.90;;;;;;6256787;22;20304;-80
2023/02/24 09:17:02;;;;;;;14.52;5.80;;;5.80;99.90;;;;;;6253809;22;20076;-83
2023/02/24 09:25:17;;;;;;;20.05;6.35;;;6.00;99.90;;;;;;6282596;22;20676;-83
2023/02/24 09:28:06;;;;;;;21.73;5.97;;;5.80;99.90;;;;;;6232667;22;20049;-83
2023/02/24 09:30:49;;;;;;;14.95;5.25;;;6.20;99.90;;;;;;6256466;22;20014;-84
2023/02/24 09:33:21;;;;;;;20.20;6.10;;;5.80;99.90;;;;;;6257793;22;20333;-83
2023/02/24 09:35:50;;;;;;;15.88;4.63;;;5.90;99.90;;;;;;6256999;22;20300;-85
2023/02/24 09:38:18;;;;;;;20.52;6.03;;;6.50;99.90;;;;;;6280370;22;20015;-82
2023/02/24 09:40:50;;;;;;;21.83;6.05;;;6.60;99.90;;;;;;6255893;22;20186;-85
2023/02/24 09:43:26;;;;;;;26.15;5.80;;;6.60;99.90;;;;;;6255214;22;20024;-81
2023/02/24 09:46:13;;;;;;;38.08;6.70;;;6.60;99.90;;;;;;6254077;22;20097;-85
2023/02/24 09:49:04;;;;;;;28.08;5.72;;;6.70;99.90;;;;;;6254752;22;20303;-87
2023/02/24 09:51:41;;;;;;;36.55;5.82;;;6.30;99.90;;;;;;6256738;22;20462;-85
2023/02/24 09:54:43;;;;;;;36.95;5.45;;;6.90;99.90;;;;;;6257660;22;20019;-85
2023/02/24 09:57:16;;;;;;;36.05;5.22;;;7.00;99.90;;;;;;6159268;23;20052;-83
2023/02/24 09:59:59;;;;;;;40.58;5.38;;;6.80;99.90;;;;;;6159559;23;20013;-83
2023/02/24 10:03:18;;;;;;;46.10;5.60;;;6.60;99.90;;;;;;6186107;23;20072;-84
2023/02/24 10:06:40;;;;;;;31.67;4.45;;;6.80;99.90;;;;;;6158184;23;20170;-84
2023/02/24 10:13:29;;;;;;;42.33;5.20;;;6.90;99.90;;;;;;6177779;23;20039;-84
2023/02/24 10:19:58;;;;;;;45.80;5.65;;;7.70;99.90;;;;;;6152069;23;20506;-84
2023/02/24 10:22:33;;;;;;;36.38;5.95;;;7.30;99.90;;;;;;6130102;23;20013;-83
2023/02/24 10:28:04;;;;;;;40.28;6.18;;;7.80;99.90;;;;;;6187816;23;20012;-83
2023/02/24 10:31:08;;;;;;;41.70;5.80;;;8.10;99.90;;;;;;6194190;23;20443;-85
2023/02/24 10:33:47;;;;;;;49.70;7.18;;;8.00;99.90;;;;;;6207360;23;20020;-85
2023/02/24 10:36:49;;;;;;;49.35;6.35;;;7.50;99.90;;;;;;6203622;23;20265;-84
2023/02/24 10:39:34;;;;;;;52.00;6.75;;;7.40;99.90;;;;;;6195140;23;20340;-84
2023/02/24 10:42:18;;;;;;;48.70;6.20;;;7.30;99.90;;;;;;6246670;23;20389;-83
2023/02/24 10:45:10;;;;;;;42.22;6.47;;;7.70;99.90;;;;;;6220291;23;20309;-83
2023/02/24 10:47:43;;;;;;;51.00;6.95;;;7.30;99.90;;;;;;6197967;23;20012;-82
2023/02/24 10:50:30;;;;;;;44.95;7.22;;;7.60;99.90;;;;;;6193301;23;20016;-84
2023/02/24 10:59:39;;;;;;;47.30;6.07;;;7.70;99.90;;;;;;6245368;23;20043;-84
2023/02/24 11:02:28;;;;;;;35.53;5.13;;;8.00;99.90;;;;;;6221416;23;20162;-84
2023/02/24 11:07:44;;;;;;;38.65;5.68;;;7.80;99.90;;;;;;6258084;23;20022;-84
2023/02/24 11:10:41;;;;;;;51.00;6.50;;;8.10;99.90;;;;;;6261659;23;20020;-81
2023/02/24 11:18:51;;;;;;;38.67;5.55;;;7.30;99.90;;;;;;6237878;23;20019;-84
2023/02/24 11:21:22;;;;;;;41.72;6.28;;;7.80;99.90;;;;;;6211594;23;20575;-84
2023/02/24 11:23:55;;;;;;;51.03;6.28;;;7.50;99.90;;;;;;6210256;23;20031;-82
2023/02/24 11:30:55;;;;;;;54.85;7.15;;;7.80;99.90;;;;;;6265001;23;20042;-85
2023/02/24 11:33:53;;;;;;;46.97;6.50;;;8.00;99.90;;;;;;6089289;23;20042;-82
2023/02/24 11:36:32;;;;;;;32.83;5.32;;;8.00;99.90;;;;;;6093309;23;20010;-83
2023/02/24 11:39:29;;;;;;;43.55;6.43;;;8.20;99.90;;;;;;6094606;23;20026;-83
2023/02/24 11:42:01;;;;;;;43.10;6.43;;;8.20;99.90;;;;;;6094073;23;20022;-83
2023/02/24 11:44:34;;;;;;;36.33;4.70;;;7.90;99.90;;;;;;6118454;23;20063;-84
2023/02/24 11:47:14;;;;;;;44.05;6.32;;;8.30;99.90;;;;;;6090450;23;20022;-83
2023/02/24 11:50:07;;;;;;;45.15;5.93;;;8.50;99.90;;;;;;6114951;23;20006;-82
2023/02/24 11:53:31;;;;;;;;;;;;;;;;;;;;;
2023/02/24 11:57:10;;;;;;;41.50;6.35;;;8.20;99.90;;;;;;6058312;23;20015;-85
2023/02/24 11:59:44;;;;;;;28.75;4.22;;;7.80;99.90;;;;;;6003377;23;20075;-83
2023/02/24 12:02:26;;;;;;;28.35;3.55;;;7.60;99.90;;;;;;6004801;23;20019;-81
2023/02/24 12:05:01;;;;;;;22.50;3.63;;;7.60;99.90;;;;;;6135538;23;20013;-83
2023/02/24 12:07:45;;;;;;;;;;;7.80;99.90;;;;;;6122776;23;20012;-83
2023/02/24 12:10:34;;;;;;;28.92;3.67;;;7.60;99.90;;;;;;6146175;23;19912;-83
2023/02/24 12:13:19;;;;;;;25.02;3.67;;;7.80;99.90;;;;;;6178138;23;20009;-82
2023/02/24 12:16:24;;;;;;;38.53;4.40;;;7.70;99.90;;;;;;6148265;23;20025;-82
2023/02/24 12:18:58;;;;;;;30.50;4.90;;;7.60;99.90;;;;;;6145032;23;20017;-82
2023/02/24 12:21:35;;;;;;;28.10;4.07;;;8.00;99.90;;;;;;6148556;23;20048;-86
2023/02/24 12:24:04;;;;;;;32.10;4.63;;;7.70;99.90;;;;;;6138995;23;20739;-83
2023/02/24 12:27:07;;;;;;;29.52;4.20;;;7.70;99.90;;;;;;6145702;23;20582;-83
2023/02/24 12:30:21;;;;;;;20.10;3.08;;;7.50;99.90;;;;;;6231070;23;20020;-81
2023/02/24 12:33:18;;;;;;;28.33;4.38;;;7.60;99.90;;;;;;6208464;23;20040;-83
2023/02/24 12:36:26;;;;;;;15.85;2.72;;;7.50;99.90;;;;;;6206619;23;20046;-80
2023/02/24 12:39:05;;;;;;;22.27;3.33;;;7.60;99.90;;;;;;6141842;23;20032;-80
2023/02/24 12:41:56;;;;;;;22.60;3.45;;;8.10;99.90;;;;;;6119754;23;20032;-80
2023/02/24 12:44:50;;;;;;;20.83;2.75;;;8.30;99.90;;;;;;6145767;23;20013;-81
2023/02/24 12:47:55;;;;;;;14.52;2.10;;;8.30;99.90;;;;;;6082620;23;20134;-79
2023/02/24 12:50:46;;;;;;;11.70;2.33;;;8.30;99.90;;;;;;5996284;24;20024;-79
2023/02/24 12:53:31;;;;;;;14.02;1.90;;;8.10;99.90;;;;;;5997613;24;20048;-78
2023/02/24 12:56:18;;;;;;;9.73;1.90;;;7.90;99.90;;;;;;5993868;24;20020;-78
2023/02/24 12:59:04;;;;;;;13.30;1.23;;;8.10;99.90;;;;;;5973621;24;20091;-80
2023/02/24 13:01:45;;;;;;;;;;;8.10;99.90;;;;;;5970329;24;20134;-80
2023/02/24 13:04:28;;;;;;;12.75;1.40;;;8.10;99.90;;;;;;5990299;24;20038;-82
2023/02/24 13:07:08;;;;;;;15.20;1.73;;;8.10;99.90;;;;;;5968206;24;20044;-82
2023/02/24 13:10:12;;;;;;;11.10;1.55;;;8.00;99.90;;;;;;5987982;24;20072;-81
2023/02/24 13:13:20;;;;;;;10.20;1.27;;;7.90;99.90;;;;;;5898415;24;20045;-80
2023/02/24 13:15:54;;;;;;;8.38;1.33;;;7.90;99.90;;;;;;5890476;24;20035;-80
2023/02/24 13:18:33;;;;;;;9.95;1.20;;;7.80;99.90;;;;;;5928682;24;20050;-84
2023/02/24 13:21:21;;;;;;;12.65;1.92;;;7.70;99.90;;;;;;5929443;24;20050;-83
2023/02/24 13:24:01;;;;;;;11.70;1.65;;;7.80;99.90;;;;;;5966513;23;20022;-82
2023/02/24 13:26:31;;;;;;;11.35;1.63;;;7.90;99.90;;;;;;6044975;23;20049;-82
2023/02/24 13:29:15;;;;;;;6.45;1.10;;;7.70;99.90;;;;;;6106693;23;20013;-82
2023/02/24 13:31:50;;;;;;;11.15;1.92;;;8.00;99.90;;;;;;6110853;23;20016;-83
2023/02/24 13:34:32;;;;;;;15.45;1.90;;;7.30;99.90;;;;;;6107706;23;20024;-81
2023/02/24 13:36:58;;;;;;;13.57;2.00;;;7.40;99.90;;;;;;6128419;23;20018;-83
2023/02/24 13:39:43;;;;;;;10.80;1.40;;;7.30;99.90;;;;;;6125646;23;20685;-83
2023/02/24 13:42:29;;;;;;;12.07;1.77;;;6.90;99.90;;;;;;6126825;23;20409;-82
2023/02/24 13:45:09;;;;;;;15.43;2.30;;;7.10;99.90;;;;;;6132437;23;20014;-82
2023/02/24 13:47:41;;;;;;;17.23;2.05;;;7.20;99.90;;;;;;6129004;23;20018;-82
2023/02/24 13:50:18;;;;;;;19.60;2.63;;;7.20;99.90;;;;;;6165909;23;20015;-84
2023/02/24 13:53:06;;;;;;;20.27;2.88;;;7.30;99.90;;;;;;6191359;23;20012;-84
2023/02/24 13:56:00;;;;;;;19.00;2.30;;;7.40;99.90;;;;;;6217991;23;20016;-83
2023/02/24 13:58:49;;;;;;;10.27;1.90;;;7.50;99.90;;;;;;6248086;23;20114;-81
2023/02/24 14:01:19;;;;;;;15.30;2.38;;;7.00;99.90;;;;;;6190279;23;20012;-80
2023/02/24 14:04:13;;;;;;;16.08;2.20;;;6.80;99.90;;;;;;6191775;23;20146;-82
2023/02/24 14:06:44;;;;;;;13.60;2.42;;;6.90;99.90;;;;;;6165538;23;20083;-82
2023/02/24 14:09:16;;;;;;;17.33;2.72;;;6.60;99.90;;;;;;6188835;23;20015;-82
2023/02/24 14:11:42;;;;;;;21.48;2.78;;;6.80;99.90;;;;;;6195441;23;20449;-83
2023/02/24 14:14:16;;;;;;;17.35;2.38;;;6.80;99.90;;;;;;6215460;23;20023;-82
2023/02/24 14:16:44;;;;;;;19.05;2.70;;;6.80;99.90;;;;;;6216520;23;20067;-84
2023/02/24 14:19:15;;;;;;;25.00;3.10;;;7.30;99.90;;;;;;6241162;23;20286;-84
2023/02/24 14:21:56;;;;;;;24.35;3.55;;;6.80;99.90;;;;;;6216183;23;20095;-82
2023/02/24 14:24:25;;;;;;;20.55;2.80;;;7.10;99.90;;;;;;6241643;23;20055;-82
2023/02/24 14:26:54;;;;;;;27.52;2.70;;;7.20;99.90;;;;;;6240047;23;20509;-82
2023/02/24 14:29:30;;;;;;;17.75;3.10;;;6.90;99.90;;;;;;6218009;23;20048;-83
2023/02/24 14:31:58;;;;;;;21.65;2.63;;;6.70;99.90;;;;;;6218879;23;20023;-82
2023/02/24 14:34:26;;;;;;;13.07;2.00;;;6.70;99.90;;;;;;6219170;23;20066;-81
2023/02/24 14:37:01;;;;;;;27.30;3.47;;;6.80;99.90;;;;;;6221637;23;20018;-84
2023/02/24 14:39:30;;;;;;;;;;;6.50;99.90;;;;;;6220059;23;20306;-82
2023/02/24 14:42:30;;;;;;;20.13;2.97;;;7.00;99.90;;;;;;6216494;23;19915;-81
2023/02/24 14:44:58;;;;;;;23.52;2.78;;;6.70;99.90;;;;;;6213423;23;20507;-83
2023/02/24 14:47:27;;;;;;;21.20;3.15;;;7.00;99.90;;;;;;6237183;23;20088;-80
2023/02/24 14:50:01;;;;;;;32.63;4.40;;;7.00;99.90;;;;;;6212703;23;20016;-79
2023/02/24 14:52:42;;;;;;;29.58;4.55;;;6.80;99.90;;;;;;6212374;23;20372;-81
2023/02/24 14:55:26;;;;;;;29.15;4.45;;;7.10;99.90;;;;;;6212587;23;20015;-83
2023/02/24 14:58:11;;;;;;;26.13;3.85;;;6.90;99.90;;;;;;6215382;23;20016;-82
2023/02/24 15:00:42;;;;;;;28.67;3.33;;;6.70;99.90;;;;;;6215927;23;20022;-81
2023/02/24 15:03:33;;;;;;;28.83;3.78;;;6.70;99.90;;;;;;6214239;23;20055;-85
2023/02/24 15:06:11;;;;;;;27.83;3.92;;;6.80;99.90;;;;;;6215482;23;20008;-81
2023/02/24 15:08:48;;;;;;;30.63;4.18;;;6.60;99.90;;;;;;6242065;23;20015;-82
2023/02/24 15:12:21;;;;;;;24.53;4.03;;;6.70;99.90;;;;;;6241085;23;20058;-82
2023/02/24 15:15:04;;;;;;;27.58;4.18;;;7.00;99.90;;;;;;6218671;23;20388;-83
2023/02/24 15:18:40;;;;;;;31.65;4.25;;;7.00;99.90;;;;;;6194548;23;20013;-85
2023/02/24 15:21:17;;;;;;;23.13;3.10;;;6.60;99.90;;;;;;6069799;23;20018;-83
2023/02/24 15:23:46;;;;;;;19.67;3.38;;;6.40;99.90;;;;;;6116591;23;20046;-83
2023/02/24 15:26:31;;;;;;;24.95;3.67;;;6.60;99.90;;;;;;6118453;23;20022;-83
2023/02/24 15:28:58;;;;;;;21.83;3.30;;;6.30;99.90;;;;;;6093885;23;20021;-83
2023/02/24 15:31:26;;;;;;;25.83;3.25;;;6.30;99.90;;;;;;6116657;23;20015;-83
2023/02/24 15:34:00;;;;;;;26.48;3.17;;;6.40;99.90;;;;;;6092157;23;20018;-83
2023/02/24 15:36:31;;;;;;;27.42;3.72;;;6.50;99.90;;;;;;6089604;23;20018;-80
2023/02/24 15:39:04;;;;;;;26.83;3.63;;;6.60;99.90;;;;;;6090914;23;20429;-82
2023/02/24 15:45:05;;;;;;;25.25;3.30;;;6.50;99.90;;;;;;6067741;23;20022;-83
2023/02/24 15:47:53;;;;;;;27.25;4.18;;;6.60;99.90;;;;;;6117795;23;20168;-82
2023/02/24 15:50:19;;;;;;;29.13;4.40;;;6.50;99.90;;;;;;6116491;23;20377;-82
2023/02/24 15:52:45;;;;;;;23.52;3.97;;;6.40;99.90;;;;;;6068331;23;20014;-84
2023/02/24 15:55:15;;;;;;;18.08;2.70;;;6.40;99.90;;;;;;6070171;23;20357;-81
2023/02/24 15:57:41;;;;;;;20.45;2.83;;;6.10;99.90;;;;;;6184015;23;20286;-83
2023/02/24 16:00:12;;;;;;;16.27;2.63;;;6.10;99.90;;;;;;6218038;23;20027;-81
2023/02/24 16:02:38;;;;;;;16.05;2.60;;;5.90;99.90;;;;;;6228055;23;20012;-82
2023/02/24 16:05:04;;;;;;;14.82;2.85;;;5.60;99.90;;;;;;6244702;23;20011;-82
2023/02/24 16:07:35;;;;;;;19.02;3.13;;;5.80;99.90;;;;;;6191074;23;20012;-81
2023/02/24 16:10:01;;;;;;;22.02;3.85;;;5.60;99.90;;;;;;6240672;23;20094;-80
2023/02/24 16:12:34;;;;;;;27.27;3.90;;;5.70;99.90;;;;;;6240223;23;20051;-80
2023/02/24 16:15:04;;;;;;;20.08;3.13;;;5.80;99.90;;;;;;6239144;23;20019;-80
2023/02/24 16:17:37;;;;;;;32.53;3.25;;;5.60;99.90;;;;;;6238624;23;20023;-81
2023/02/24 16:20:07;;;;;;;21.65;3.47;;;5.60;99.90;;;;;;6240152;23;20023;-83
2023/02/24 16:22:37;;;;;;;24.80;3.35;;;5.70;99.90;;;;;;6239491;23;20074;-83
2023/02/24 16:25:04;;;;;;;18.75;2.97;;;5.80;99.90;;;;;;6238335;23;20050;-83
2023/02/24 16:27:49;;;;;;;18.23;3.20;;;5.60;99.90;;;;;;6215928;23;20015;-80
2023/02/24 16:30:17;;;;;;;24.83;3.30;;;5.70;99.90;;;;;;6239044;23;20055;-82
2023/02/24 16:32:44;;;;;;;16.95;2.80;;;5.60;99.90;;;;;;6214787;23;20332;-83
2023/02/24 16:35:11;;;;;;;33.08;3.80;;;5.60;99.90;;;;;;6215554;23;20020;-80
2023/02/24 16:37:37;;;;;;;30.23;3.80;;;5.80;99.90;;;;;;6212979;23;20038;-79
2023/02/24 16:40:15;;;;;;;31.92;4.13;;;5.70;99.90;;;;;;6237437;23;20519;-84
2023/02/24 16:42:41;;;;;;;25.52;3.35;;;5.70;99.90;;;;;;6241967;23;20012;-83
2023/02/24 16:45:09;;;;;;;26.38;3.15;;;5.70;99.90;;;;;;6249857;23;20019;-82
2023/02/24 16:47:35;;;;;;;24.65;4.03;;;5.80;99.90;;;;;;6236057;23;20095;-85
2023/02/24 16:50:01;;;;;;;26.77;4.18;;;5.70;99.90;;;;;;6212948;23;20086;-81
2023/02/24 16:52:27;;;;;;;30.15;4.18;;;5.70;99.90;;;;;;6237300;23;20012;-83
2023/02/24 16:54:53;;;;;;;29.70;4.20;;;5.70;99.90;;;;;;6212738;23;20097;-78
2023/02/24 16:57:24;;;;;;;27.48;4.47;;;5.60;99.90;;;;;;6237107;23;20016;-83
2023/02/24 16:59:50;;;;;;;38.38;5.03;;;5.70;99.90;;;;;;6212329;23;20020;-81
2023/02/24 17:02:22;;;;;;;36.15;5.78;;;5.70;99.90;;;;;;6213163;23;20012;-81
2023/02/24 17:04:47;;;;;;;36.45;5.78;;;5.70;99.90;;;;;;6212749;23;20602;-80
2023/02/24 17:07:15;;;;;;;33.13;4.95;;;5.60;99.90;;;;;;6211286;23;20019;-82
2023/02/24 17:09:41;;;;;;;39.40;5.80;;;5.70;99.90;;;;;;6210934;23;20016;-82
2023/02/24 17:12:10;;;;;;;43.88;5.97;;;5.70;99.90;;;;;;6210426;23;20024;-82
2023/02/24 17:14:35;;;;;;;36.92;4.60;;;5.30;99.90;;;;;;6211516;23;20028;-85
2023/02/24 17:17:01;;;;;;;36.90;5.10;;;5.50;99.90;;;;;;6238803;23;20517;-84
2023/02/24 17:19:27;;;;;;;35.70;4.78;;;5.50;99.90;;;;;;6213113;23;20027;-84
2023/02/24 17:21:53;;;;;;;31.40;4.63;;;5.20;99.90;;;;;;6214281;23;20016;-83
2023/02/24 17:24:19;;;;;;;30.02;3.67;;;5.30;99.90;;;;;;6217529;23;20074;-82
2023/02/24 17:30:16;;;;;;;25.85;3.63;;;5.10;99.90;;;;;;6245326;23;20027;-83
2023/02/24 17:32:42;;;;;;;26.38;3.58;;;5.10;99.90;;;;;;6211943;23;20082;-81
2023/02/24 17:35:08;;;;;;;22.35;3.60;;;5.00;99.90;;;;;;6237338;23;20012;-80
2023/02/24 17:37:34;;;;;;;24.48;3.00;;;5.00;99.90;;;;;;6212420;23;20015;-84
2023/02/24 17:40:06;;;;;;;12.45;1.83;;;4.80;99.90;;;;;;6213772;23;20026;-84
2023/02/24 17:42:32;;;;;;;26.10;3.58;;;5.00;99.90;;;;;;6213840;23;20008;-82
2023/02/24 17:44:58;;;;;;;22.10;3.72;;;4.80;99.90;;;;;;6237351;23;20081;-81
2023/02/24 17:47:39;;;;;;;26.35;3.65;;;5.00;99.90;;;;;;6178581;23;20031;-80
2023/02/24 17:50:06;;;;;;;31.48;4.00;;;4.80;99.90;;;;;;6176395;23;20032;-84
2023/02/24 17:52:32;;;;;;;21.35;3.40;;;5.10;99.90;;;;;;6175994;23;20024;-83
2023/02/24 17:54:58;;;;;;;30.85;4.20;;;5.10;99.90;;;;;;6127491;23;20024;-82
2023/02/24 17:57:26;;;;;;;26.88;4.20;;;5.10;99.90;;;;;;6153002;23;20013;-83
2023/02/24 17:59:52;;;;;;;28.25;3.80;;;5.20;99.90;;;;;;6154569;23;20473;-81
2023/02/24 18:02:18;;;;;;;28.15;4.38;;;5.30;99.90;;;;;;6127294;23;20019;-83
2023/02/24 18:04:44;;;;;;;34.33;4.72;;;5.20;99.90;;;;;;6129413;23;20512;-80
2023/02/24 18:07:11;;;;;;;34.13;5.57;;;5.50;99.90;;;;;;6127239;23;20013;-81
2023/02/24 18:09:38;;;;;;;41.13;4.95;;;5.40;99.90;;;;;;6128237;23;20055;-82
2023/02/24 18:12:04;;;;;;;43.00;5.50;;;5.50;99.90;;;;;;6177935;23;20125;-81
2023/02/24 18:14:34;;;;;;;43.58;5.15;;;5.30;99.90;;;;;;6130144;23;20021;-80
2023/02/24 18:16:59;;;;;;;39.42;4.82;;;5.20;99.90;;;;;;6153750;23;20140;-80
2023/02/24 18:19:25;;;;;;;38.13;5.00;;;5.30;99.90;;;;;;6228723;23;20047;-81
2023/02/24 18:21:51;;;;;;;39.63;5.43;;;5.00;99.90;;;;;;6216337;23;20018;-83
2023/02/24 18:24:17;;;;;;;39.00;4.47;;;5.20;99.90;;;;;;6242528;23;20344;-81
2023/02/24 18:27:05;;;;;;;24.10;3.55;;;5.00;99.90;;;;;;6241241;23;20062;-82
2023/02/24 18:29:31;;;;;;;21.33;3.80;;;5.20;99.90;;;;;;6240081;23;20027;-84
2023/02/24 18:31:57;;;;;;;24.02;2.92;;;5.20;99.90;;;;;;6215792;23;20395;-82
2023/02/24 18:34:24;;;;;;;17.35;2.55;;;5.30;99.90;;;;;;6214703;23;20019;-83
2023/02/24 18:36:49;;;;;;;19.02;2.47;;;5.30;99.90;;;;;;6189316;23;20012;-81
2023/02/24 18:39:15;;;;;;;21.48;2.75;;;5.40;99.90;;;;;;6213669;23;20451;-84
2023/02/24 18:41:50;;;;;;;21.10;2.90;;;5.20;99.90;;;;;;6240316;23;20016;-83
2023/02/24 18:44:15;;;;;;;17.35;2.55;;;5.40;99.90;;;;;;6215370;23;20027;-83
2023/02/24 18:46:41;;;;;;;18.30;2.20;;;5.30;99.90;;;;;;6212584;23;20008;-82
2023/02/24 18:49:07;;;;;;;16.00;2.72;;;5.20;99.90;;;;;;6240708;23;20308;-83
2023/02/24 18:51:34;;;;;;;25.02;3.75;;;5.10;99.90;;;;;;6214526;23;20012;-81
2023/02/24 18:54:00;;;;;;;23.95;3.53;;;5.00;99.90;;;;;;6212160;23;20352;-81
2023/02/24 18:56:28;;;;;;;29.27;3.78;;;5.10;99.90;;;;;;6237600;23;20020;-82
2023/02/24 18:59:30;;;;;;;23.48;3.85;;;5.10;99.90;;;;;;6210808;23;20376;-86
2023/02/24 19:01:56;;;;;;;24.90;3.53;;;5.00;99.90;;;;;;6238201;23;20016;-82
2023/02/24 19:04:23;;;;;;;27.30;4.47;;;4.90;99.90;;;;;;6212540;23;20460;-83
2023/02/24 19:06:49;;;;;;;30.40;4.45;;;4.80;99.90;;;;;;6238496;23;20012;-82
2023/02/24 19:09:16;;;;;;;27.05;4.18;;;4.90;99.90;;;;;;6237312;23;20069;-83
2023/02/24 19:11:42;;;;;;;29.33;4.60;;;4.90;99.90;;;;;;6237524;23;20070;-80
2023/02/24 19:14:09;;;;;;;30.48;3.67;;;4.90;99.90;;;;;;6214078;23;20441;-82
2023/02/24 19:16:36;;;;;;;26.52;3.70;;;4.80;99.90;;;;;;6213904;23;20120;-82
2023/02/24 19:19:02;;;;;;;27.83;3.45;;;5.00;99.90;;;;;;6213611;23;20105;-80
2023/02/24 19:21:30;;;;;;;22.45;3.22;;;4.70;99.90;;;;;;6237737;23;20019;-83
2023/02/24 19:23:59;;;;;;;29.35;3.67;;;4.80;99.90;;;;;;6211539;23;20012;-81
2023/02/24 19:26:26;;;;;;;22.83;3.72;;;5.00;99.90;;;;;;6236487;23;20102;-83
2023/02/24 19:28:53;;;;;;;26.85;4.00;;;5.00;99.90;;;;;;6212751;23;20043;-82
2023/02/24 19:31:22;;;;;;;25.10;3.38;;;4.80;99.90;;;;;;6212813;23;20016;-83
2023/02/24 19:33:53;;;;;;;27.45;4.50;;;4.90;99.90;;;;;;6213675;23;20335;-84
2023/02/24 19:36:19;;;;;;;23.13;3.88;;;4.80;99.90;;;;;;6236503;23;20061;-83
2023/02/24 19:38:45;;;;;;;25.05;3.15;;;5.00;99.90;;;;;;6240310;23;20027;-82
2023/02/24 19:41:10;;;;;;;23.40;3.65;;;5.10;99.90;;;;;;6210881;23;20020;-84
2023/02/24 19:43:36;;;;;;;28.10;4.18;;;5.10;99.90;;;;;;6236601;23;20012;-82
2023/02/24 19:46:06;;;;;;;29.63;4.63;;;5.20;99.90;;;;;;6211987;23;20051;-80
2023/02/24 19:48:32;;;;;;;27.13;4.63;;;5.20;99.90;;;;;;6237843;23;20459;-81
2023/02/24 19:50:59;;;;;;;34.13;4.63;;;5.20;99.90;;;;;;6211397;23;20082;-81
2023/02/24 19:53:24;;;;;;;29.35;4.47;;;5.20;99.90;;;;;;6237169;23;20018;-81
2023/02/24 19:55:50;;;;;;;21.83;3.67;;;5.20;99.90;;;;;;6210942;23;20099;-79
2023/02/24 19:58:16;;;;;;;24.77;3.50;;;5.10;99.90;;;;;;6234559;23;20111;-82
2023/02/24 20:00:42;;;;;;;25.13;3.63;;;5.00;99.90;;;;;;6212299;23;20016;-84
2023/02/24 20:03:08;;;;;;;20.77;3.88;;;5.10;99.90;;;;;;6235604;23;20141;-83
2023/02/24 20:05:37;;;;;;;21.00;3.22;;;5.20;99.90;;;;;;6237688;23;20031;-83
2023/02/24 20:08:02;;;;;;;20.70;2.85;;;5.20;99.90;;;;;;6211645;23;20012;-81
2023/02/24 20:10:28;;;;;;;27.73;4.47;;;5.20;99.90;;;;;;6235569;23;20432;-81
2023/02/24 20:12:53;;;;;;;25.50;3.42;;;5.20;99.90;;;;;;6235860;23;20016;-84
2023/02/24 20:15:19;;;;;;;29.25;3.67;;;5.00;99.90;;;;;;6237935;23;20115;-81